sensor_id;sensor_type;location;lat;lon;timestamp;temperature;humidity
10788;DHT22;5446;50.826;4.380;2023-08-24T00:00:57;20.80;99.90
10788;DHT22;5446;50.826;4.380;2023-08-24T00:03:22;20.80;99.90
10788;DHT22;5446;50.826;4.380;2023-08-24T00:05:48;20.70;99.90
10788;DHT22;5446;50.826;4.380;2023-08-24T00:08:14;20.70;99.90
10788;DHT22;5446;50.826;4.380;2023-08-24T00:10:43;20.70;99.90
10788;DHT22;5446;50.826;4.380;2023-08-24T00:13:12;20.70;99.90
10788;DHT22;5446;50.826;4.380;2023-08-24T00:15:38;20.70;99.90
10788;DHT22;5446;50.826;4.380;2023-08-24T00:18:05;20.70;99.90
10788;DHT22;5446;50.826;4.380;2023-08-24T00:20:31;20.70;99.90
10788;DHT22;5446;50.826;4.380;2023-08-24T00:23:01;20.70;99.90
10788;DHT22;5446;50.826;4.380;2023-08-24T00:25:26;20.70;99.90
10788;DHT22;5446;50.826;4.380;2023-08-24T00:27:53;20.70;99.90
10788;DHT22;5446;50.826;4.380;2023-08-24T00:30:19;20.70;99.90
10788;DHT22;5446;50.826;4.380;2023-08-24T00:32:45;20.80;99.90
10788;DHT22;5446;50.826;4.380;2023-08-24T00:35:10;20.80;99.90
10788;DHT22;5446;50.826;4.380;2023-08-24T00:37:37;20.80;99.90
10788;DHT22;5446;50.826;4.380;2023-08-24T00:40:04;20.80;99.90
10788;DHT22;5446;50.826;4.380;2023-08-24T00:42:40;20.80;99.90
10788;DHT22;5446;50.826;4.380;2023-08-24T00:45:07;20.80;99.90
10788;DHT22;5446;50.826;4.380;2023-08-24T00:47:35;20.80;99.90
10788;DHT22;5446;50.826;4.380;2023-08-24T00:50:01;20.80;99.90
10788;DHT22;5446;50.826;4.380;2023-08-24T00:52:30;20.80;99.90
10788;DHT22;5446;50.826;4.380;2023-08-24T00:54:57;20.70;99.90
10788;DHT22;5446;50.826;4.380;2023-08-24T00:57:24;20.80;99.90
10788;DHT22;5446;50.826;4.380;2023-08-24T00:59:50;20.80;99.90
10788;DHT22;5446;50.826;4.380;2023-08-24T01:02:15;20.80;99.90
10788;DHT22;5446;50.826;4.380;2023-08-24T01:04:41;20.80;99.90
10788;DHT22;5446;50.826;4.380;2023-08-24T01:07:08;20.90;99.90
10788;DHT22;5446;50.826;4.380;2023-08-24T01:09:35;20.90;99.90
10788;DHT22;5446;50.826;4.380;2023-08-24T01:12:14;20.90;99.90
10788;DHT22;5446;50.826;4.380;2023-08-24T01:14:50;20.90;99.90
10788;DHT22;5446;50.826;4.380;2023-08-24T01:17:21;20.90;99.90
10788;DHT22;5446;50.826;4.380;2023-08-24T01:19:48;20.90;99.90
10788;DHT22;5446;50.826;4.380;2023-08-24T01:25:12;20.90;99.90
10788;DHT22;5446;50.826;4.380;2023-08-24T01:27:41;20.90;99.90
10788;DHT22;5446;50.826;4.380;2023-08-24T01:30:08;21.00;99.90
10788;DHT22;5446;50.826;4.380;2023-08-24T01:32:35;21.00;99.90
10788;DHT22;5446;50.826;4.380;2023-08-24T01:35:06;21.00;99.90
10788;DHT22;5446;50.826;4.380;2023-08-24T01:37:33;21.00;99.90
10788;DHT22;5446;50.826;4.380;2023-08-24T01:40:30;20.90;99.90
10788;DHT22;5446;50.826;4.380;2023-08-24T01:42:59;20.90;99.90
10788;DHT22;5446;50.826;4.380;2023-08-24T01:45:32;20.90;99.90
10788;DHT22;5446;50.826;4.380;2023-08-24T01:48:03;20.90;99.90
10788;DHT22;5446;50.826;4.380;2023-08-24T01:50:30;20.90;99.90
10788;DHT22;5446;50.826;4.380;2023-08-24T01:52:56;20.80;99.90
10788;DHT22;5446;50.826;4.380;2023-08-24T01:55:23;20.80;99.90
10788;DHT22;5446;50.826;4.380;2023-08-24T01:57:49;20.80;99.90
10788;DHT22;5446;50.826;4.380;2023-08-24T02:00:15;20.70;99.90
10788;DHT22;5446;50.826;4.380;2023-08-24T02:02:44;20.80;99.90
10788;DHT22;5446;50.826;4.380;2023-08-24T02:05:10;20.80;99.90
10788;DHT22;5446;50.826;4.380;2023-08-24T02:07:38;20.70;99.90
10788;DHT22;5446;50.826;4.380;2023-08-24T02:10:04;20.70;99.90
10788;DHT22;5446;50.826;4.380;2023-08-24T02:12:30;20.60;99.90
10788;DHT22;5446;50.826;4.380;2023-08-24T02:14:55;20.40;99.90
10788;DHT22;5446;50.826;4.380;2023-08-24T02:17:21;20.40;99.90
10788;DHT22;5446;50.826;4.380;2023-08-24T02:19:47;20.20;99.90
10788;DHT22;5446;50.826;4.380;2023-08-24T02:22:12;20.00;99.90
10788;DHT22;5446;50.826;4.380;2023-08-24T02:24:38;19.90;99.90
10788;DHT22;5446;50.826;4.380;2023-08-24T02:27:04;19.80;99.90
10788;DHT22;5446;50.826;4.380;2023-08-24T02:29:30;19.60;99.90
10788;DHT22;5446;50.826;4.380;2023-08-24T02:31:56;19.60;99.90
10788;DHT22;5446;50.826;4.380;2023-08-24T02:34:22;19.60;99.90
10788;DHT22;5446;50.826;4.380;2023-08-24T02:36:47;19.50;99.90
10788;DHT22;5446;50.826;4.380;2023-08-24T02:39:13;19.50;99.90
10788;DHT22;5446;50.826;4.380;2023-08-24T02:41:39;19.50;99.90
10788;DHT22;5446;50.826;4.380;2023-08-24T02:44:05;19.50;99.90
10788;DHT22;5446;50.826;4.380;2023-08-24T02:46:30;19.50;99.90
10788;DHT22;5446;50.826;4.380;2023-08-24T02:48:56;19.50;99.90
10788;DHT22;5446;50.826;4.380;2023-08-24T02:51:23;19.40;99.90
10788;DHT22;5446;50.826;4.380;2023-08-24T02:53:49;19.50;99.90
10788;DHT22;5446;50.826;4.380;2023-08-24T02:56:15;19.50;99.90
10788;DHT22;5446;50.826;4.380;2023-08-24T02:58:40;19.40;99.90
10788;DHT22;5446;50.826;4.380;2023-08-24T03:01:06;19.40;99.90
10788;DHT22;5446;50.826;4.380;2023-08-24T03:03:33;19.50;99.90
10788;DHT22;5446;50.826;4.380;2023-08-24T03:06:06;19.50;99.90
10788;DHT22;5446;50.826;4.380;2023-08-24T03:08:32;19.50;99.90
10788;DHT22;5446;50.826;4.380;2023-08-24T03:10:59;19.50;99.90
10788;DHT22;5446;50.826;4.380;2023-08-24T03:13:25;19.50;99.90
10788;DHT22;5446;50.826;4.380;2023-08-24T03:15:51;19.50;99.90
10788;DHT22;5446;50.826;4.380;2023-08-24T03:18:18;19.40;99.90
10788;DHT22;5446;50.826;4.380;2023-08-24T03:20:45;19.40;99.90
10788;DHT22;5446;50.826;4.380;2023-08-24T03:23:11;19.40;99.90
10788;DHT22;5446;50.826;4.380;2023-08-24T03:25:40;19.30;99.90
10788;DHT22;5446;50.826;4.380;2023-08-24T03:28:07;19.30;99.90
10788;DHT22;5446;50.826;4.380;2023-08-24T03:30:37;19.30;99.90
10788;DHT22;5446;50.826;4.380;2023-08-24T03:33:04;19.30;99.90
10788;DHT22;5446;50.826;4.380;2023-08-24T03:35:33;19.30;99.90
10788;DHT22;5446;50.826;4.380;2023-08-24T03:37:59;19.30;99.90
10788;DHT22;5446;50.826;4.380;2023-08-24T03:40:25;19.30;99.90
10788;DHT22;5446;50.826;4.380;2023-08-24T03:42:51;19.30;99.90
10788;DHT22;5446;50.826;4.380;2023-08-24T03:45:18;19.30;99.90
10788;DHT22;5446;50.826;4.380;2023-08-24T03:47:44;19.40;99.90
10788;DHT22;5446;50.826;4.380;2023-08-24T03:50:09;19.40;99.90
10788;DHT22;5446;50.826;4.380;2023-08-24T03:52:36;19.40;99.90
10788;DHT22;5446;50.826;4.380;2023-08-24T03:55:02;19.30;99.90
10788;DHT22;5446;50.826;4.380;2023-08-24T03:57:28;19.30;99.90
10788;DHT22;5446;50.826;4.380;2023-08-24T03:59:53;19.30;99.90
10788;DHT22;5446;50.826;4.380;2023-08-24T04:02:19;19.40;99.90
10788;DHT22;5446;50.826;4.380;2023-08-24T04:04:46;19.40;99.90
10788;DHT22;5446;50.826;4.380;2023-08-24T04:07:11;19.30;99.90
10788;DHT22;5446;50.826;4.380;2023-08-24T04:09:37;19.40;99.90
10788;DHT22;5446;50.826;4.380;2023-08-24T04:12:03;19.40;99.90
10788;DHT22;5446;50.826;4.380;2023-08-24T04:14:29;19.40;99.90
10788;DHT22;5446;50.826;4.380;2023-08-24T04:16:54;19.40;99.90
10788;DHT22;5446;50.826;4.380;2023-08-24T04:19:21;19.40;99.90
10788;DHT22;5446;50.826;4.380;2023-08-24T04:21:47;19.50;99.90
10788;DHT22;5446;50.826;4.380;2023-08-24T04:24:12;19.40;99.90
10788;DHT22;5446;50.826;4.380;2023-08-24T04:26:38;19.40;99.90
10788;DHT22;5446;50.826;4.380;2023-08-24T04:29:04;19.50;99.90
10788;DHT22;5446;50.826;4.380;2023-08-24T04:31:29;19.50;99.90
10788;DHT22;5446;50.826;4.380;2023-08-24T04:33:55;19.40;99.90
10788;DHT22;5446;50.826;4.380;2023-08-24T04:36:21;19.40;99.90
10788;DHT22;5446;50.826;4.380;2023-08-24T04:38:46;19.50;99.90
10788;DHT22;5446;50.826;4.380;2023-08-24T04:41:12;19.40;99.90
10788;DHT22;5446;50.826;4.380;2023-08-24T04:43:38;19.40;99.90
10788;DHT22;5446;50.826;4.380;2023-08-24T04:46:04;19.40;99.90
10788;DHT22;5446;50.826;4.380;2023-08-24T04:48:30;19.50;99.90
10788;DHT22;5446;50.826;4.380;2023-08-24T04:51:00;19.40;99.90
10788;DHT22;5446;50.826;4.380;2023-08-24T04:53:27;19.50;99.90
10788;DHT22;5446;50.826;4.380;2023-08-24T04:55:53;19.40;99.90
10788;DHT22;5446;50.826;4.380;2023-08-24T04:58:19;19.40;99.90
10788;DHT22;5446;50.826;4.380;2023-08-24T05:00:45;19.40;99.90
10788;DHT22;5446;50.826;4.380;2023-08-24T05:03:11;19.50;99.90
10788;DHT22;5446;50.826;4.380;2023-08-24T05:05:37;19.50;99.90
10788;DHT22;5446;50.826;4.380;2023-08-24T05:08:05;19.50;99.90
10788;DHT22;5446;50.826;4.380;2023-08-24T05:10:37;19.50;99.90
10788;DHT22;5446;50.826;4.380;2023-08-24T05:13:03;19.50;99.90
10788;DHT22;5446;50.826;4.380;2023-08-24T05:15:29;19.50;99.90
10788;DHT22;5446;50.826;4.380;2023-08-24T05:17:55;19.50;99.90
10788;DHT22;5446;50.826;4.380;2023-08-24T05:20:28;19.60;99.90
10788;DHT22;5446;50.826;4.380;2023-08-24T05:22:54;19.60;99.90
10788;DHT22;5446;50.826;4.380;2023-08-24T05:25:23;19.60;99.90
10788;DHT22;5446;50.826;4.380;2023-08-24T05:27:49;19.70;99.90
10788;DHT22;5446;50.826;4.380;2023-08-24T05:30:15;19.70;99.90
10788;DHT22;5446;50.826;4.380;2023-08-24T05:32:41;19.70;99.90
10788;DHT22;5446;50.826;4.380;2023-08-24T05:35:07;19.70;99.90
10788;DHT22;5446;50.826;4.380;2023-08-24T05:37:35;19.80;99.90
10788;DHT22;5446;50.826;4.380;2023-08-24T05:40:02;19.80;99.90
10788;DHT22;5446;50.826;4.380;2023-08-24T05:42:28;19.80;99.90
10788;DHT22;5446;50.826;4.380;2023-08-24T05:44:55;19.90;99.90
10788;DHT22;5446;50.826;4.380;2023-08-24T05:47:20;19.90;99.90
10788;DHT22;5446;50.826;4.380;2023-08-24T05:49:46;20.00;99.90
10788;DHT22;5446;50.826;4.380;2023-08-24T05:52:12;20.00;99.90
10788;DHT22;5446;50.826;4.380;2023-08-24T05:54:37;20.00;99.90
10788;DHT22;5446;50.826;4.380;2023-08-24T05:57:04;20.00;99.90
10788;DHT22;5446;50.826;4.380;2023-08-24T05:59:32;20.00;99.90
10788;DHT22;5446;50.826;4.380;2023-08-24T06:01:57;20.10;99.90
10788;DHT22;5446;50.826;4.380;2023-08-24T06:04:23;20.10;99.90
10788;DHT22;5446;50.826;4.380;2023-08-24T06:06:49;20.10;99.90
10788;DHT22;5446;50.826;4.380;2023-08-24T06:09:15;20.20;99.90
10788;DHT22;5446;50.826;4.380;2023-08-24T06:11:40;20.20;99.90
10788;DHT22;5446;50.826;4.380;2023-08-24T06:14:06;20.30;99.90
10788;DHT22;5446;50.826;4.380;2023-08-24T06:16:32;20.40;99.90
10788;DHT22;5446;50.826;4.380;2023-08-24T06:18:58;20.40;99.90
10788;DHT22;5446;50.826;4.380;2023-08-24T06:21:24;20.50;99.90
10788;DHT22;5446;50.826;4.380;2023-08-24T06:23:50;20.50;99.90
10788;DHT22;5446;50.826;4.380;2023-08-24T06:26:16;20.60;99.90
10788;DHT22;5446;50.826;4.380;2023-08-24T06:28:42;20.80;99.90
10788;DHT22;5446;50.826;4.380;2023-08-24T06:31:08;20.90;99.90
10788;DHT22;5446;50.826;4.380;2023-08-24T06:33:34;21.10;99.90
10788;DHT22;5446;50.826;4.380;2023-08-24T06:36:01;21.20;99.90
10788;DHT22;5446;50.826;4.380;2023-08-24T06:38:27;21.40;99.90
10788;DHT22;5446;50.826;4.380;2023-08-24T06:40:54;21.50;99.90
10788;DHT22;5446;50.826;4.380;2023-08-24T06:43:20;21.60;99.90
10788;DHT22;5446;50.826;4.380;2023-08-24T06:45:46;21.70;99.90
10788;DHT22;5446;50.826;4.380;2023-08-24T06:48:12;21.80;99.90
10788;DHT22;5446;50.826;4.380;2023-08-24T06:50:37;21.80;99.90
10788;DHT22;5446;50.826;4.380;2023-08-24T06:53:04;22.00;99.90
10788;DHT22;5446;50.826;4.380;2023-08-24T06:55:30;22.00;99.90
10788;DHT22;5446;50.826;4.380;2023-08-24T06:57:56;22.10;99.90
10788;DHT22;5446;50.826;4.380;2023-08-24T07:00:22;22.20;99.90
10788;DHT22;5446;50.826;4.380;2023-08-24T07:02:50;22.30;99.90
10788;DHT22;5446;50.826;4.380;2023-08-24T07:05:16;22.30;99.90
10788;DHT22;5446;50.826;4.380;2023-08-24T07:07:45;22.50;99.90
10788;DHT22;5446;50.826;4.380;2023-08-24T07:10:11;22.60;99.90
10788;DHT22;5446;50.826;4.380;2023-08-24T07:12:37;22.80;99.90
10788;DHT22;5446;50.826;4.380;2023-08-24T07:15:09;23.00;99.90
10788;DHT22;5446;50.826;4.380;2023-08-24T07:17:35;23.10;99.90
10788;DHT22;5446;50.826;4.380;2023-08-24T07:20:02;23.20;99.90
10788;DHT22;5446;50.826;4.380;2023-08-24T07:22:30;23.40;99.90
10788;DHT22;5446;50.826;4.380;2023-08-24T07:24:56;23.30;99.90
10788;DHT22;5446;50.826;4.380;2023-08-24T07:27:21;23.40;99.90
10788;DHT22;5446;50.826;4.380;2023-08-24T07:29:47;23.40;99.90
10788;DHT22;5446;50.826;4.380;2023-08-24T07:32:13;23.40;99.90
10788;DHT22;5446;50.826;4.380;2023-08-24T07:34:39;23.60;99.90
10788;DHT22;5446;50.826;4.380;2023-08-24T07:37:04;23.60;99.90
10788;DHT22;5446;50.826;4.380;2023-08-24T07:39:30;23.60;99.90
10788;DHT22;5446;50.826;4.380;2023-08-24T07:41:56;23.60;99.90
10788;DHT22;5446;50.826;4.380;2023-08-24T07:44:22;23.60;99.90
10788;DHT22;5446;50.826;4.380;2023-08-24T07:46:48;23.50;99.90
10788;DHT22;5446;50.826;4.380;2023-08-24T07:49:13;23.60;99.90
10788;DHT22;5446;50.826;4.380;2023-08-24T07:51:39;23.70;99.90
10788;DHT22;5446;50.826;4.380;2023-08-24T07:54:06;23.70;99.90
10788;DHT22;5446;50.826;4.380;2023-08-24T07:56:32;23.70;99.90
10788;DHT22;5446;50.826;4.380;2023-08-24T07:58:58;23.70;99.90
10788;DHT22;5446;50.826;4.380;2023-08-24T08:01:24;23.70;99.90
10788;DHT22;5446;50.826;4.380;2023-08-24T08:03:50;23.70;99.90
10788;DHT22;5446;50.826;4.380;2023-08-24T08:06:15;23.70;99.90
10788;DHT22;5446;50.826;4.380;2023-08-24T08:08:41;23.80;99.90
10788;DHT22;5446;50.826;4.380;2023-08-24T08:11:07;23.70;99.90
10788;DHT22;5446;50.826;4.380;2023-08-24T08:13:33;23.80;99.90
10788;DHT22;5446;50.826;4.380;2023-08-24T08:16:06;23.80;99.90
10788;DHT22;5446;50.826;4.380;2023-08-24T08:18:33;23.70;99.90
10788;DHT22;5446;50.826;4.380;2023-08-24T08:20:59;23.80;99.90
10788;DHT22;5446;50.826;4.380;2023-08-24T08:23:25;23.80;99.90
10788;DHT22;5446;50.826;4.380;2023-08-24T08:25:51;23.90;99.90
10788;DHT22;5446;50.826;4.380;2023-08-24T08:28:17;23.90;99.90
10788;DHT22;5446;50.826;4.380;2023-08-24T08:30:44;24.00;99.90
10788;DHT22;5446;50.826;4.380;2023-08-24T08:33:10;24.00;99.90
10788;DHT22;5446;50.826;4.380;2023-08-24T08:35:36;24.00;99.90
10788;DHT22;5446;50.826;4.380;2023-08-24T08:38:02;24.20;99.90
10788;DHT22;5446;50.826;4.380;2023-08-24T08:40:30;24.20;99.90
10788;DHT22;5446;50.826;4.380;2023-08-24T08:42:57;24.00;99.90
10788;DHT22;5446;50.826;4.380;2023-08-24T08:45:25;24.10;99.90
10788;DHT22;5446;50.826;4.380;2023-08-24T08:47:53;24.10;99.90
10788;DHT22;5446;50.826;4.380;2023-08-24T08:50:20;24.20;99.90
10788;DHT22;5446;50.826;4.380;2023-08-24T08:52:46;24.30;99.90
10788;DHT22;5446;50.826;4.380;2023-08-24T08:55:11;24.40;99.90
10788;DHT22;5446;50.826;4.380;2023-08-24T08:57:38;24.50;99.90
10788;DHT22;5446;50.826;4.380;2023-08-24T09:00:07;24.60;99.90
10788;DHT22;5446;50.826;4.380;2023-08-24T09:02:35;24.50;99.90
10788;DHT22;5446;50.826;4.380;2023-08-24T09:05:01;24.50;99.90
10788;DHT22;5446;50.826;4.380;2023-08-24T09:07:29;24.60;99.90
10788;DHT22;5446;50.826;4.380;2023-08-24T09:09:55;24.50;99.90
10788;DHT22;5446;50.826;4.380;2023-08-24T09:12:21;24.50;99.90
10788;DHT22;5446;50.826;4.380;2023-08-24T09:14:47;24.40;99.90
10788;DHT22;5446;50.826;4.380;2023-08-24T09:17:20;24.30;99.90
10788;DHT22;5446;50.826;4.380;2023-08-24T09:19:50;24.30;99.90
10788;DHT22;5446;50.826;4.380;2023-08-24T09:22:16;24.20;99.90
10788;DHT22;5446;50.826;4.380;2023-08-24T09:24:42;24.20;99.90
10788;DHT22;5446;50.826;4.380;2023-08-24T09:27:18;24.10;99.90
10788;DHT22;5446;50.826;4.380;2023-08-24T09:29:51;24.00;99.90
10788;DHT22;5446;50.826;4.380;2023-08-24T09:32:23;24.00;99.90
10788;DHT22;5446;50.826;4.380;2023-08-24T09:34:50;23.80;99.90
10788;DHT22;5446;50.826;4.380;2023-08-24T09:37:16;23.70;99.90
10788;DHT22;5446;50.826;4.380;2023-08-24T09:39:42;23.50;99.90
10788;DHT22;5446;50.826;4.380;2023-08-24T09:42:08;23.20;99.90
10788;DHT22;5446;50.826;4.380;2023-08-24T09:44:34;22.90;99.90
10788;DHT22;5446;50.826;4.380;2023-08-24T09:47:00;22.70;99.90
10788;DHT22;5446;50.826;4.380;2023-08-24T09:49:28;22.30;99.90
10788;DHT22;5446;50.826;4.380;2023-08-24T09:51:56;21.80;99.90
10788;DHT22;5446;50.826;4.380;2023-08-24T09:54:27;21.60;99.90
10788;DHT22;5446;50.826;4.380;2023-08-24T09:56:55;21.50;99.90
10788;DHT22;5446;50.826;4.380;2023-08-24T09:59:22;21.40;99.90
10788;DHT22;5446;50.826;4.380;2023-08-24T10:01:51;21.40;99.90
10788;DHT22;5446;50.826;4.380;2023-08-24T10:04:24;21.30;99.90
10788;DHT22;5446;50.826;4.380;2023-08-24T10:07:11;21.10;99.90
10788;DHT22;5446;50.826;4.380;2023-08-24T10:12:26;21.00;99.90
10788;DHT22;5446;50.826;4.380;2023-08-24T10:15:01;21.00;99.90
10788;DHT22;5446;50.826;4.380;2023-08-24T10:17:33;20.90;99.90
10788;DHT22;5446;50.826;4.380;2023-08-24T10:20:02;20.90;99.90
10788;DHT22;5446;50.826;4.380;2023-08-24T10:22:31;20.80;99.90
10788;DHT22;5446;50.826;4.380;2023-08-24T10:24:58;20.90;99.90
10788;DHT22;5446;50.826;4.380;2023-08-24T10:27:28;20.90;99.90
10788;DHT22;5446;50.826;4.380;2023-08-24T10:29:58;20.80;99.90
10788;DHT22;5446;50.826;4.380;2023-08-24T10:32:25;20.80;99.90
10788;DHT22;5446;50.826;4.380;2023-08-24T10:34:51;20.80;99.90
10788;DHT22;5446;50.826;4.380;2023-08-24T10:37:25;20.80;99.90
10788;DHT22;5446;50.826;4.380;2023-08-24T10:39:51;20.80;99.90
10788;DHT22;5446;50.826;4.380;2023-08-24T10:42:17;20.90;99.90
10788;DHT22;5446;50.826;4.380;2023-08-24T10:44:46;21.00;99.90
10788;DHT22;5446;50.826;4.380;2023-08-24T10:49:59;21.00;99.90
10788;DHT22;5446;50.826;4.380;2023-08-24T10:52:32;21.10;99.90
10788;DHT22;5446;50.826;4.380;2023-08-24T10:55:04;21.30;99.90
10788;DHT22;5446;50.826;4.380;2023-08-24T10:57:40;21.50;99.90
10788;DHT22;5446;50.826;4.380;2023-08-24T11:00:11;21.60;99.90
10788;DHT22;5446;50.826;4.380;2023-08-24T11:02:49;21.70;99.90
10788;DHT22;5446;50.826;4.380;2023-08-24T11:05:23;21.90;99.90
10788;DHT22;5446;50.826;4.380;2023-08-24T11:10:23;21.90;99.90
10788;DHT22;5446;50.826;4.380;2023-08-24T11:15:34;21.90;99.90
10788;DHT22;5446;50.826;4.380;2023-08-24T11:20:52;22.10;99.90
10788;DHT22;5446;50.826;4.380;2023-08-24T11:23:19;22.10;99.90
10788;DHT22;5446;50.826;4.380;2023-08-24T11:25:46;22.00;99.90
10788;DHT22;5446;50.826;4.380;2023-08-24T11:28:19;22.10;99.90
10788;DHT22;5446;50.826;4.380;2023-08-24T11:30:45;22.10;99.90
10788;DHT22;5446;50.826;4.380;2023-08-24T11:33:12;22.10;99.90
10788;DHT22;5446;50.826;4.380;2023-08-24T11:35:44;22.10;99.90
10788;DHT22;5446;50.826;4.380;2023-08-24T11:38:10;22.20;99.90
10788;DHT22;5446;50.826;4.380;2023-08-24T11:40:36;22.30;99.90
10788;DHT22;5446;50.826;4.380;2023-08-24T11:43:03;22.10;99.90
10788;DHT22;5446;50.826;4.380;2023-08-24T11:45:33;22.10;99.90
10788;DHT22;5446;50.826;4.380;2023-08-24T11:48:00;22.10;99.90
10788;DHT22;5446;50.826;4.380;2023-08-24T11:50:26;22.00;99.90
10788;DHT22;5446;50.826;4.380;2023-08-24T11:52:53;22.00;99.90
10788;DHT22;5446;50.826;4.380;2023-08-24T11:55:21;21.90;99.90
10788;DHT22;5446;50.826;4.380;2023-08-24T11:57:47;21.90;99.90
10788;DHT22;5446;50.826;4.380;2023-08-24T12:00:13;22.00;99.90
10788;DHT22;5446;50.826;4.380;2023-08-24T12:02:42;21.80;99.90
10788;DHT22;5446;50.826;4.380;2023-08-24T12:05:23;21.80;99.90
10788;DHT22;5446;50.826;4.380;2023-08-24T12:07:49;21.80;99.90
10788;DHT22;5446;50.826;4.380;2023-08-24T12:10:16;21.80;99.90
10788;DHT22;5446;50.826;4.380;2023-08-24T12:12:42;21.90;99.90
10788;DHT22;5446;50.826;4.380;2023-08-24T12:15:08;21.80;99.90
10788;DHT22;5446;50.826;4.380;2023-08-24T12:17:44;21.70;99.90
10788;DHT22;5446;50.826;4.380;2023-08-24T12:20:20;21.60;99.90
10788;DHT22;5446;50.826;4.380;2023-08-24T12:22:50;21.70;99.90
10788;DHT22;5446;50.826;4.380;2023-08-24T12:25:16;21.70;99.90
10788;DHT22;5446;50.826;4.380;2023-08-24T12:27:42;21.60;99.90
10788;DHT22;5446;50.826;4.380;2023-08-24T12:30:10;21.60;99.90
10788;DHT22;5446;50.826;4.380;2023-08-24T12:32:47;21.50;99.90
10788;DHT22;5446;50.826;4.380;2023-08-24T12:35:14;21.40;99.90
10788;DHT22;5446;50.826;4.380;2023-08-24T12:37:40;21.40;99.90
10788;DHT22;5446;50.826;4.380;2023-08-24T12:40:07;21.40;99.90
10788;DHT22;5446;50.826;4.380;2023-08-24T12:42:34;21.30;99.90
10788;DHT22;5446;50.826;4.380;2023-08-24T12:45:00;21.30;99.90
10788;DHT22;5446;50.826;4.380;2023-08-24T12:47:26;21.20;99.90
10788;DHT22;5446;50.826;4.380;2023-08-24T12:49:52;21.10;99.90
10788;DHT22;5446;50.826;4.380;2023-08-24T12:52:20;21.10;99.90
10788;DHT22;5446;50.826;4.380;2023-08-24T12:54:45;21.10;99.90
10788;DHT22;5446;50.826;4.380;2023-08-24T12:57:11;21.10;99.90
10788;DHT22;5446;50.826;4.380;2023-08-24T12:59:38;21.10;99.90
10788;DHT22;5446;50.826;4.380;2023-08-24T13:02:03;21.10;99.90
10788;DHT22;5446;50.826;4.380;2023-08-24T13:04:30;21.00;99.90
10788;DHT22;5446;50.826;4.380;2023-08-24T13:06:58;21.10;99.90
10788;DHT22;5446;50.826;4.380;2023-08-24T13:09:23;21.00;99.90
10788;DHT22;5446;50.826;4.380;2023-08-24T13:11:49;21.00;99.90
10788;DHT22;5446;50.826;4.380;2023-08-24T13:14:16;21.00;99.90
10788;DHT22;5446;50.826;4.380;2023-08-24T13:16:42;21.10;99.90
10788;DHT22;5446;50.826;4.380;2023-08-24T13:19:08;21.00;99.90
10788;DHT22;5446;50.826;4.380;2023-08-24T13:21:34;21.00;99.90
10788;DHT22;5446;50.826;4.380;2023-08-24T13:23:59;21.10;99.90
10788;DHT22;5446;50.826;4.380;2023-08-24T13:26:25;21.10;99.90
10788;DHT22;5446;50.826;4.380;2023-08-24T13:28:51;21.00;99.90
10788;DHT22;5446;50.826;4.380;2023-08-24T13:31:17;21.00;99.90
10788;DHT22;5446;50.826;4.380;2023-08-24T13:33:44;21.00;99.90
10788;DHT22;5446;50.826;4.380;2023-08-24T13:36:10;21.10;99.90
10788;DHT22;5446;50.826;4.380;2023-08-24T13:38:35;21.10;99.90
10788;DHT22;5446;50.826;4.380;2023-08-24T13:41:02;21.10;99.90
10788;DHT22;5446;50.826;4.380;2023-08-24T13:43:29;21.10;99.90
10788;DHT22;5446;50.826;4.380;2023-08-24T13:45:54;21.20;99.90
10788;DHT22;5446;50.826;4.380;2023-08-24T13:48:20;21.30;99.90
10788;DHT22;5446;50.826;4.380;2023-08-24T13:50:52;21.30;99.90
10788;DHT22;5446;50.826;4.380;2023-08-24T13:53:19;21.40;99.90
10788;DHT22;5446;50.826;4.380;2023-08-24T13:55:44;21.40;99.90
10788;DHT22;5446;50.826;4.380;2023-08-24T13:58:10;21.40;99.90
10788;DHT22;5446;50.826;4.380;2023-08-24T14:00:36;21.40;99.90
10788;DHT22;5446;50.826;4.380;2023-08-24T14:03:03;21.50;99.90
10788;DHT22;5446;50.826;4.380;2023-08-24T14:05:29;21.60;99.90
10788;DHT22;5446;50.826;4.380;2023-08-24T14:07:54;21.50;99.90
10788;DHT22;5446;50.826;4.380;2023-08-24T14:10:20;21.60;99.90
10788;DHT22;5446;50.826;4.380;2023-08-24T14:12:46;21.60;99.90
10788;DHT22;5446;50.826;4.380;2023-08-24T14:15:12;21.70;99.90
10788;DHT22;5446;50.826;4.380;2023-08-24T14:17:37;21.70;99.90
10788;DHT22;5446;50.826;4.380;2023-08-24T14:20:03;21.70;99.90
10788;DHT22;5446;50.826;4.380;2023-08-24T14:22:34;21.70;99.90
10788;DHT22;5446;50.826;4.380;2023-08-24T14:25:00;21.70;99.90
10788;DHT22;5446;50.826;4.380;2023-08-24T14:27:26;21.60;99.90
10788;DHT22;5446;50.826;4.380;2023-08-24T14:29:51;21.60;99.90
10788;DHT22;5446;50.826;4.380;2023-08-24T14:32:17;21.70;99.90
10788;DHT22;5446;50.826;4.380;2023-08-24T14:34:43;21.70;99.90
10788;DHT22;5446;50.826;4.380;2023-08-24T14:37:09;21.80;99.90
10788;DHT22;5446;50.826;4.380;2023-08-24T14:39:35;21.90;99.90
10788;DHT22;5446;50.826;4.380;2023-08-24T14:42:00;22.00;99.90
10788;DHT22;5446;50.826;4.380;2023-08-24T14:44:28;22.00;99.90
10788;DHT22;5446;50.826;4.380;2023-08-24T14:46:54;22.10;99.90
10788;DHT22;5446;50.826;4.380;2023-08-24T14:49:19;22.00;99.90
10788;DHT22;5446;50.826;4.380;2023-08-24T14:51:45;22.10;99.90
10788;DHT22;5446;50.826;4.380;2023-08-24T14:54:11;22.10;99.90
10788;DHT22;5446;50.826;4.380;2023-08-24T14:56:40;22.10;99.90
10788;DHT22;5446;50.826;4.380;2023-08-24T14:59:05;22.10;99.90
10788;DHT22;5446;50.826;4.380;2023-08-24T15:01:31;22.30;99.90
10788;DHT22;5446;50.826;4.380;2023-08-24T15:03:57;22.30;99.90
10788;DHT22;5446;50.826;4.380;2023-08-24T15:06:22;22.30;99.90
10788;DHT22;5446;50.826;4.380;2023-08-24T15:08:48;22.40;99.90
10788;DHT22;5446;50.826;4.380;2023-08-24T15:11:14;22.40;99.90
10788;DHT22;5446;50.826;4.380;2023-08-24T15:13:41;22.50;99.90
10788;DHT22;5446;50.826;4.380;2023-08-24T15:16:07;22.60;99.90
10788;DHT22;5446;50.826;4.380;2023-08-24T15:18:34;22.70;99.90
10788;DHT22;5446;50.826;4.380;2023-08-24T15:21:01;22.70;99.90
10788;DHT22;5446;50.826;4.380;2023-08-24T15:23:28;22.70;99.90
10788;DHT22;5446;50.826;4.380;2023-08-24T15:25:55;22.80;99.90
10788;DHT22;5446;50.826;4.380;2023-08-24T15:28:22;22.80;99.90
10788;DHT22;5446;50.826;4.380;2023-08-24T15:30:48;22.80;99.90
10788;DHT22;5446;50.826;4.380;2023-08-24T15:33:15;22.80;99.90
10788;DHT22;5446;50.826;4.380;2023-08-24T15:35:41;22.80;99.90
10788;DHT22;5446;50.826;4.380;2023-08-24T15:38:08;23.00;99.90
10788;DHT22;5446;50.826;4.380;2023-08-24T15:40:34;23.20;99.90
10788;DHT22;5446;50.826;4.380;2023-08-24T15:43:04;23.40;99.90
10788;DHT22;5446;50.826;4.380;2023-08-24T15:45:30;23.50;99.90
10788;DHT22;5446;50.826;4.380;2023-08-24T15:47:57;23.60;99.90
10788;DHT22;5446;50.826;4.380;2023-08-24T15:50:23;23.70;99.90
10788;DHT22;5446;50.826;4.380;2023-08-24T15:52:48;23.80;99.90
10788;DHT22;5446;50.826;4.380;2023-08-24T15:55:14;23.90;99.90
10788;DHT22;5446;50.826;4.380;2023-08-24T15:57:40;24.00;99.90
10788;DHT22;5446;50.826;4.380;2023-08-24T16:00:07;24.00;99.90